sensor_id;sensor_type;location;lat;lon;timestamp;P1;durP1;ratioP1;P2;durP2;ratioP2
67965;SDS011;54749;47.850;9.002;2022-12-13T00:01:13;18.83;;;7.40;;
67965;SDS011;54749;47.850;9.002;2022-12-13T00:03:42;21.93;;;8.00;;
67965;SDS011;54749;47.850;9.002;2022-12-13T00:06:09;28.65;;;9.13;;
67965;SDS011;54749;47.850;9.002;2022-12-13T00:08:37;26.38;;;9.60;;
67965;SDS011;54749;47.850;9.002;2022-12-13T00:11:05;21.63;;;7.70;;
67965;SDS011;54749;47.850;9.002;2022-12-13T00:13:34;16.55;;;6.85;;
67965;SDS011;54749;47.850;9.002;2022-12-13T00:16:02;16.97;;;6.20;;
67965;SDS011;54749;47.850;9.002;2022-12-13T00:18:31;20.30;;;7.35;;
67965;SDS011;54749;47.850;9.002;2022-12-13T00:20:58;21.30;;;7.72;;
67965;SDS011;54749;47.850;9.002;2022-12-13T00:23:26;21.60;;;8.25;;
67965;SDS011;54749;47.850;9.002;2022-12-13T00:25:54;29.40;;;9.35;;
67965;SDS011;54749;47.850;9.002;2022-12-13T00:28:20;21.17;;;7.27;;
67965;SDS011;54749;47.850;9.002;2022-12-13T00:30:47;21.67;;;7.07;;
67965;SDS011;54749;47.850;9.002;2022-12-13T00:33:14;19.52;;;7.45;;
67965;SDS011;54749;47.850;9.002;2022-12-13T00:35:41;20.20;;;6.55;;
67965;SDS011;54749;47.850;9.002;2022-12-13T00:38:08;20.92;;;7.50;;
67965;SDS011;54749;47.850;9.002;2022-12-13T00:40:35;19.93;;;7.17;;
67965;SDS011;54749;47.850;9.002;2022-12-13T00:43:01;17.80;;;6.38;;
67965;SDS011;54749;47.850;9.002;2022-12-13T00:45:29;19.42;;;7.43;;
67965;SDS011;54749;47.850;9.002;2022-12-13T00:47:55;25.63;;;8.05;;
67965;SDS011;54749;47.850;9.002;2022-12-13T00:50:22;23.92;;;8.05;;
67965;SDS011;54749;47.850;9.002;2022-12-13T00:52:49;19.70;;;6.70;;
67965;SDS011;54749;47.850;9.002;2022-12-13T00:55:17;26.77;;;7.60;;
67965;SDS011;54749;47.850;9.002;2022-12-13T00:57:43;19.85;;;7.25;;
67965;SDS011;54749;47.850;9.002;2022-12-13T01:00:10;20.75;;;7.10;;
67965;SDS011;54749;47.850;9.002;2022-12-13T01:02:37;20.70;;;6.70;;
67965;SDS011;54749;47.850;9.002;2022-12-13T01:05:04;22.37;;;7.97;;
67965;SDS011;54749;47.850;9.002;2022-12-13T01:07:31;21.13;;;6.97;;
67965;SDS011;54749;47.850;9.002;2022-12-13T01:09:58;22.83;;;7.45;;
67965;SDS011;54749;47.850;9.002;2022-12-13T01:12:25;26.35;;;7.60;;
67965;SDS011;54749;47.850;9.002;2022-12-13T01:14:52;22.63;;;8.38;;
67965;SDS011;54749;47.850;9.002;2022-12-13T01:17:22;25.90;;;7.97;;
67965;SDS011;54749;47.850;9.002;2022-12-13T01:19:49;22.48;;;7.85;;
67965;SDS011;54749;47.850;9.002;2022-12-13T01:22:16;22.83;;;7.55;;
67965;SDS011;54749;47.850;9.002;2022-12-13T01:24:43;22.55;;;8.02;;
67965;SDS011;54749;47.850;9.002;2022-12-13T01:27:10;22.50;;;7.57;;
67965;SDS011;54749;47.850;9.002;2022-12-13T01:29:37;25.13;;;8.37;;
67965;SDS011;54749;47.850;9.002;2022-12-13T01:32:03;21.40;;;7.82;;
67965;SDS011;54749;47.850;9.002;2022-12-13T01:34:31;23.92;;;8.35;;
67965;SDS011;54749;47.850;9.002;2022-12-13T01:36:58;19.60;;;6.47;;
67965;SDS011;54749;47.850;9.002;2022-12-13T01:39:25;22.45;;;8.52;;
67965;SDS011;54749;47.850;9.002;2022-12-13T01:41:53;22.13;;;7.33;;
67965;SDS011;54749;47.850;9.002;2022-12-13T01:50:17;18.80;;;6.68;;
67965;SDS011;54749;47.850;9.002;2022-12-13T01:52:48;23.23;;;7.65;;
67965;SDS011;54749;47.850;9.002;2022-12-13T01:55:16;16.83;;;6.23;;
67965;SDS011;54749;47.850;9.002;2022-12-13T01:57:45;18.88;;;6.35;;
67965;SDS011;54749;47.850;9.002;2022-12-13T02:00:16;20.38;;;6.22;;
67965;SDS011;54749;47.850;9.002;2022-12-13T02:02:43;19.70;;;6.75;;
67965;SDS011;54749;47.850;9.002;2022-12-13T02:05:15;27.77;;;8.80;;
67965;SDS011;54749;47.850;9.002;2022-12-13T02:07:46;24.10;;;8.43;;
67965;SDS011;54749;47.850;9.002;2022-12-13T02:10:14;19.55;;;6.65;;
67965;SDS011;54749;47.850;9.002;2022-12-13T02:12:40;21.05;;;6.55;;
67965;SDS011;54749;47.850;9.002;2022-12-13T02:15:12;20.25;;;7.50;;
67965;SDS011;54749;47.850;9.002;2022-12-13T02:17:48;16.55;;;6.30;;
67965;SDS011;54749;47.850;9.002;2022-12-13T02:26:06;19.60;;;7.00;;
67965;SDS011;54749;47.850;9.002;2022-12-13T02:32:02;19.92;;;7.35;;
67965;SDS011;54749;47.850;9.002;2022-12-13T02:34:55;21.30;;;6.83;;
67965;SDS011;54749;47.850;9.002;2022-12-13T02:40:44;18.58;;;6.55;;
67965;SDS011;54749;47.850;9.002;2022-12-13T02:43:17;18.20;;;5.70;;
67965;SDS011;54749;47.850;9.002;2022-12-13T02:45:53;20.83;;;6.78;;
67965;SDS011;54749;47.850;9.002;2022-12-13T02:48:27;23.67;;;7.80;;
67965;SDS011;54749;47.850;9.002;2022-12-13T02:50:57;22.35;;;7.22;;
67965;SDS011;54749;47.850;9.002;2022-12-13T02:53:26;14.93;;;5.72;;
67965;SDS011;54749;47.850;9.002;2022-12-13T02:55:59;24.92;;;8.82;;
67965;SDS011;54749;47.850;9.002;2022-12-13T02:58:27;17.17;;;6.43;;
67965;SDS011;54749;47.850;9.002;2022-12-13T03:04:36;13.85;;;5.70;;
67965;SDS011;54749;47.850;9.002;2022-12-13T03:07:27;18.52;;;6.40;;
67965;SDS011;54749;47.850;9.002;2022-12-13T03:10:04;19.30;;;6.80;;
67965;SDS011;54749;47.850;9.002;2022-12-13T03:15:46;23.07;;;7.60;;
67965;SDS011;54749;47.850;9.002;2022-12-13T03:18:20;21.13;;;7.50;;
67965;SDS011;54749;47.850;9.002;2022-12-13T03:20:51;19.48;;;7.60;;
67965;SDS011;54749;47.850;9.002;2022-12-13T03:23:26;15.85;;;5.82;;
67965;SDS011;54749;47.850;9.002;2022-12-13T03:26:12;16.85;;;6.10;;
67965;SDS011;54749;47.850;9.002;2022-12-13T03:28:42;15.30;;;5.80;;
67965;SDS011;54749;47.850;9.002;2022-12-13T03:31:09;17.85;;;6.20;;
67965;SDS011;54749;47.850;9.002;2022-12-13T03:33:36;21.08;;;6.03;;
67965;SDS011;54749;47.850;9.002;2022-12-13T03:36:06;15.52;;;6.10;;
67965;SDS011;54749;47.850;9.002;2022-12-13T03:38:34;18.73;;;6.38;;
67965;SDS011;54749;47.850;9.002;2022-12-13T03:41:04;18.80;;;6.87;;
67965;SDS011;54749;47.850;9.002;2022-12-13T03:43:34;25.35;;;7.25;;
67965;SDS011;54749;47.850;9.002;2022-12-13T03:46:01;18.48;;;7.10;;
67965;SDS011;54749;47.850;9.002;2022-12-13T03:48:28;16.45;;;6.22;;
67965;SDS011;54749;47.850;9.002;2022-12-13T03:50:55;17.05;;;5.72;;
67965;SDS011;54749;47.850;9.002;2022-12-13T03:53:22;17.57;;;6.10;;
67965;SDS011;54749;47.850;9.002;2022-12-13T03:56:04;18.10;;;6.15;;
67965;SDS011;54749;47.850;9.002;2022-12-13T03:58:32;18.35;;;6.18;;
67965;SDS011;54749;47.850;9.002;2022-12-13T04:01:04;16.27;;;5.53;;
67965;SDS011;54749;47.850;9.002;2022-12-13T04:03:32;18.48;;;6.03;;
67965;SDS011;54749;47.850;9.002;2022-12-13T04:05:59;20.17;;;6.27;;
67965;SDS011;54749;47.850;9.002;2022-12-13T04:08:26;20.73;;;6.25;;
67965;SDS011;54749;47.850;9.002;2022-12-13T04:10:53;19.52;;;6.20;;
67965;SDS011;54749;47.850;9.002;2022-12-13T04:13:19;18.02;;;5.90;;
67965;SDS011;54749;47.850;9.002;2022-12-13T04:15:59;15.70;;;5.40;;
67965;SDS011;54749;47.850;9.002;2022-12-13T04:18:27;22.57;;;6.40;;
67965;SDS011;54749;47.850;9.002;2022-12-13T04:20:53;18.08;;;6.07;;
67965;SDS011;54749;47.850;9.002;2022-12-13T04:23:20;14.93;;;5.60;;
67965;SDS011;54749;47.850;9.002;2022-12-13T04:25:47;15.60;;;5.55;;
67965;SDS011;54749;47.850;9.002;2022-12-13T04:28:14;19.13;;;6.03;;
67965;SDS011;54749;47.850;9.002;2022-12-13T04:30:51;16.70;;;5.37;;
67965;SDS011;54749;47.850;9.002;2022-12-13T04:33:22;13.35;;;5.28;;
67965;SDS011;54749;47.850;9.002;2022-12-13T04:35:50;18.38;;;5.68;;
67965;SDS011;54749;47.850;9.002;2022-12-13T04:38:17;18.27;;;6.03;;
67965;SDS011;54749;47.850;9.002;2022-12-13T04:40:44;17.20;;;6.00;;
67965;SDS011;54749;47.850;9.002;2022-12-13T04:43:11;14.13;;;5.20;;
67965;SDS011;54749;47.850;9.002;2022-12-13T04:45:38;15.07;;;5.38;;
67965;SDS011;54749;47.850;9.002;2022-12-13T04:48:05;19.13;;;6.10;;
67965;SDS011;54749;47.850;9.002;2022-12-13T04:50:32;16.05;;;5.97;;
67965;SDS011;54749;47.850;9.002;2022-12-13T04:52:59;19.35;;;6.43;;
67965;SDS011;54749;47.850;9.002;2022-12-13T04:55:26;19.63;;;6.33;;
67965;SDS011;54749;47.850;9.002;2022-12-13T04:57:53;15.88;;;5.95;;
67965;SDS011;54749;47.850;9.002;2022-12-13T05:00:20;17.80;;;6.10;;
67965;SDS011;54749;47.850;9.002;2022-12-13T05:02:48;17.65;;;5.88;;
67965;SDS011;54749;47.850;9.002;2022-12-13T05:05:16;16.20;;;5.35;;
67965;SDS011;54749;47.850;9.002;2022-12-13T05:07:43;17.03;;;5.73;;
67965;SDS011;54749;47.850;9.002;2022-12-13T05:10:10;16.65;;;5.78;;
67965;SDS011;54749;47.850;9.002;2022-12-13T05:13:08;14.77;;;5.18;;
67965;SDS011;54749;47.850;9.002;2022-12-13T05:15:35;14.50;;;4.75;;
67965;SDS011;54749;47.850;9.002;2022-12-13T05:18:03;15.52;;;5.50;;
67965;SDS011;54749;47.850;9.002;2022-12-13T05:20:37;11.37;;;4.83;;
67965;SDS011;54749;47.850;9.002;2022-12-13T05:23:04;17.70;;;5.95;;
67965;SDS011;54749;47.850;9.002;2022-12-13T05:25:32;12.55;;;4.82;;
67965;SDS011;54749;47.850;9.002;2022-12-13T05:27:59;15.30;;;5.60;;
67965;SDS011;54749;47.850;9.002;2022-12-13T05:30:38;14.23;;;5.22;;
67965;SDS011;54749;47.850;9.002;2022-12-13T05:33:06;18.83;;;6.37;;
67965;SDS011;54749;47.850;9.002;2022-12-13T05:35:34;16.77;;;4.95;;
67965;SDS011;54749;47.850;9.002;2022-12-13T05:38:01;13.57;;;4.78;;
67965;SDS011;54749;47.850;9.002;2022-12-13T05:40:29;17.15;;;6.03;;
67965;SDS011;54749;47.850;9.002;2022-12-13T05:42:57;21.25;;;7.10;;
67965;SDS011;54749;47.850;9.002;2022-12-13T05:45:28;17.13;;;5.90;;
67965;SDS011;54749;47.850;9.002;2022-12-13T05:47:55;18.73;;;6.07;;
67965;SDS011;54749;47.850;9.002;2022-12-13T05:50:23;16.17;;;5.90;;
67965;SDS011;54749;47.850;9.002;2022-12-13T05:52:50;17.45;;;6.18;;
67965;SDS011;54749;47.850;9.002;2022-12-13T05:55:18;18.45;;;5.97;;
67965;SDS011;54749;47.850;9.002;2022-12-13T05:57:45;17.30;;;6.17;;
67965;SDS011;54749;47.850;9.002;2022-12-13T06:00:16;15.73;;;5.60;;
67965;SDS011;54749;47.850;9.002;2022-12-13T06:02:56;14.27;;;4.97;;
67965;SDS011;54749;47.850;9.002;2022-12-13T06:05:30;18.48;;;5.97;;
67965;SDS011;54749;47.850;9.002;2022-12-13T06:07:57;17.10;;;6.10;;
67965;SDS011;54749;47.850;9.002;2022-12-13T06:10:25;17.67;;;6.03;;
67965;SDS011;54749;47.850;9.002;2022-12-13T06:13:00;17.20;;;6.22;;
67965;SDS011;54749;47.850;9.002;2022-12-13T06:15:31;19.83;;;6.38;;
67965;SDS011;54749;47.850;9.002;2022-12-13T06:18:00;17.98;;;6.30;;
67965;SDS011;54749;47.850;9.002;2022-12-13T06:20:27;18.35;;;5.80;;
67965;SDS011;54749;47.850;9.002;2022-12-13T06:22:54;17.40;;;6.30;;
67965;SDS011;54749;47.850;9.002;2022-12-13T06:25:21;24.40;;;5.70;;
67965;SDS011;54749;47.850;9.002;2022-12-13T06:28:00;18.45;;;6.07;;
67965;SDS011;54749;47.850;9.002;2022-12-13T06:30:28;18.85;;;6.18;;
67965;SDS011;54749;47.850;9.002;2022-12-13T06:32:56;20.70;;;6.63;;
67965;SDS011;54749;47.850;9.002;2022-12-13T06:35:23;18.60;;;6.47;;
67965;SDS011;54749;47.850;9.002;2022-12-13T06:37:55;19.75;;;5.85;;
67965;SDS011;54749;47.850;9.002;2022-12-13T06:40:28;18.42;;;6.18;;
67965;SDS011;54749;47.850;9.002;2022-12-13T06:42:56;17.50;;;5.68;;
67965;SDS011;54749;47.850;9.002;2022-12-13T06:45:23;16.40;;;5.57;;
67965;SDS011;54749;47.850;9.002;2022-12-13T06:47:50;19.03;;;6.43;;
67965;SDS011;54749;47.850;9.002;2022-12-13T06:50:17;15.93;;;6.30;;
67965;SDS011;54749;47.850;9.002;2022-12-13T06:52:46;15.35;;;6.45;;
67965;SDS011;54749;47.850;9.002;2022-12-13T06:55:13;16.95;;;6.65;;
67965;SDS011;54749;47.850;9.002;2022-12-13T06:57:49;19.23;;;6.68;;
67965;SDS011;54749;47.850;9.002;2022-12-13T07:00:17;13.63;;;5.60;;
67965;SDS011;54749;47.850;9.002;2022-12-13T07:02:52;16.48;;;5.90;;
67965;SDS011;54749;47.850;9.002;2022-12-13T07:05:20;16.02;;;5.30;;
67965;SDS011;54749;47.850;9.002;2022-12-13T07:07:47;15.65;;;6.15;;
67965;SDS011;54749;47.850;9.002;2022-12-13T07:10:15;19.40;;;6.38;;
67965;SDS011;54749;47.850;9.002;2022-12-13T07:12:48;20.03;;;6.77;;
67965;SDS011;54749;47.850;9.002;2022-12-13T07:15:15;18.75;;;6.35;;
67965;SDS011;54749;47.850;9.002;2022-12-13T07:17:42;17.52;;;6.60;;
67965;SDS011;54749;47.850;9.002;2022-12-13T07:20:09;18.98;;;6.57;;
67965;SDS011;54749;47.850;9.002;2022-12-13T07:22:38;16.70;;;6.07;;
67965;SDS011;54749;47.850;9.002;2022-12-13T07:25:13;18.83;;;6.80;;
67965;SDS011;54749;47.850;9.002;2022-12-13T07:27:58;17.30;;;5.85;;
67965;SDS011;54749;47.850;9.002;2022-12-13T07:30:29;23.30;;;6.97;;
67965;SDS011;54749;47.850;9.002;2022-12-13T07:32:59;20.25;;;7.22;;
67965;SDS011;54749;47.850;9.002;2022-12-13T07:35:27;18.77;;;6.40;;
67965;SDS011;54749;47.850;9.002;2022-12-13T07:37:54;19.57;;;6.60;;
67965;SDS011;54749;47.850;9.002;2022-12-13T07:40:21;15.35;;;6.13;;
67965;SDS011;54749;47.850;9.002;2022-12-13T07:42:54;18.48;;;6.93;;
67965;SDS011;54749;47.850;9.002;2022-12-13T07:45:24;21.95;;;7.90;;
67965;SDS011;54749;47.850;9.002;2022-12-13T07:47:51;18.50;;;6.95;;
67965;SDS011;54749;47.850;9.002;2022-12-13T07:50:18;19.53;;;6.93;;
67965;SDS011;54749;47.850;9.002;2022-12-13T07:52:51;18.17;;;6.43;;
67965;SDS011;54749;47.850;9.002;2022-12-13T07:55:19;20.70;;;7.18;;
67965;SDS011;54749;47.850;9.002;2022-12-13T07:58:12;21.92;;;6.22;;
67965;SDS011;54749;47.850;9.002;2022-12-13T08:00:41;18.33;;;6.60;;
67965;SDS011;54749;47.850;9.002;2022-12-13T08:03:12;17.97;;;6.73;;
67965;SDS011;54749;47.850;9.002;2022-12-13T08:05:58;17.42;;;6.80;;
67965;SDS011;54749;47.850;9.002;2022-12-13T08:08:29;20.45;;;7.20;;
67965;SDS011;54749;47.850;9.002;2022-12-13T08:11:01;18.10;;;6.50;;
67965;SDS011;54749;47.850;9.002;2022-12-13T08:13:28;20.20;;;7.20;;
67965;SDS011;54749;47.850;9.002;2022-12-13T08:15:56;16.50;;;6.00;;
67965;SDS011;54749;47.850;9.002;2022-12-13T08:18:25;17.80;;;7.10;;
67965;SDS011;54749;47.850;9.002;2022-12-13T08:20:56;19.17;;;7.38;;
67965;SDS011;54749;47.850;9.002;2022-12-13T08:23:23;17.98;;;6.20;;
67965;SDS011;54749;47.850;9.002;2022-12-13T08:25:53;19.35;;;6.85;;
67965;SDS011;54749;47.850;9.002;2022-12-13T08:28:20;20.87;;;7.30;;
67965;SDS011;54749;47.850;9.002;2022-12-13T08:30:48;21.92;;;8.00;;
67965;SDS011;54749;47.850;9.002;2022-12-13T08:33:14;16.90;;;6.65;;
67965;SDS011;54749;47.850;9.002;2022-12-13T08:35:41;19.65;;;6.90;;
67965;SDS011;54749;47.850;9.002;2022-12-13T08:38:08;24.92;;;7.60;;
67965;SDS011;54749;47.850;9.002;2022-12-13T08:40:35;20.65;;;7.65;;
67965;SDS011;54749;47.850;9.002;2022-12-13T08:46:14;19.83;;;8.30;;
67965;SDS011;54749;47.850;9.002;2022-12-13T08:48:41;21.88;;;7.70;;
67965;SDS011;54749;47.850;9.002;2022-12-13T08:51:58;18.83;;;7.37;;
67965;SDS011;54749;47.850;9.002;2022-12-13T08:54:25;22.92;;;7.85;;
67965;SDS011;54749;47.850;9.002;2022-12-13T08:56:57;20.65;;;7.97;;
67965;SDS011;54749;47.850;9.002;2022-12-13T08:59:24;20.63;;;7.60;;
67965;SDS011;54749;47.850;9.002;2022-12-13T09:01:51;24.00;;;8.73;;
67965;SDS011;54749;47.850;9.002;2022-12-13T09:04:21;19.47;;;7.47;;
67965;SDS011;54749;47.850;9.002;2022-12-13T09:06:57;23.08;;;8.65;;
67965;SDS011;54749;47.850;9.002;2022-12-13T09:09:28;21.45;;;8.00;;
67965;SDS011;54749;47.850;9.002;2022-12-13T09:11:55;21.42;;;8.52;;
67965;SDS011;54749;47.850;9.002;2022-12-13T09:14:26;22.60;;;8.68;;
67965;SDS011;54749;47.850;9.002;2022-12-13T09:17:00;22.13;;;7.80;;
67965;SDS011;54749;47.850;9.002;2022-12-13T09:19:30;23.35;;;7.70;;
67965;SDS011;54749;47.850;9.002;2022-12-13T09:22:03;23.73;;;8.13;;
67965;SDS011;54749;47.850;9.002;2022-12-13T09:24:31;22.73;;;8.30;;
67965;SDS011;54749;47.850;9.002;2022-12-13T09:27:05;22.02;;;8.77;;
67965;SDS011;54749;47.850;9.002;2022-12-13T09:29:36;17.38;;;7.85;;
67965;SDS011;54749;47.850;9.002;2022-12-13T09:32:04;20.63;;;8.47;;
67965;SDS011;54749;47.850;9.002;2022-12-13T09:34:31;21.92;;;8.77;;
67965;SDS011;54749;47.850;9.002;2022-12-13T09:37:01;22.75;;;8.80;;
67965;SDS011;54749;47.850;9.002;2022-12-13T09:39:28;22.45;;;8.88;;
67965;SDS011;54749;47.850;9.002;2022-12-13T09:41:56;22.10;;;8.85;;
67965;SDS011;54749;47.850;9.002;2022-12-13T09:44:40;22.60;;;8.77;;
67965;SDS011;54749;47.850;9.002;2022-12-13T09:50:19;21.60;;;8.98;;
67965;SDS011;54749;47.850;9.002;2022-12-13T09:52:51;22.65;;;8.73;;
67965;SDS011;54749;47.850;9.002;2022-12-13T09:55:59;23.25;;;8.77;;
67965;SDS011;54749;47.850;9.002;2022-12-13T09:58:36;21.13;;;8.40;;
67965;SDS011;54749;47.850;9.002;2022-12-13T10:01:03;20.75;;;9.07;;
67965;SDS011;54749;47.850;9.002;2022-12-13T10:03:30;21.35;;;8.48;;
67965;SDS011;54749;47.850;9.002;2022-12-13T10:05:59;22.38;;;8.80;;
67965;SDS011;54749;47.850;9.002;2022-12-13T10:08:34;21.35;;;8.63;;
67965;SDS011;54749;47.850;9.002;2022-12-13T10:11:04;23.00;;;8.80;;
67965;SDS011;54749;47.850;9.002;2022-12-13T10:19:37;23.00;;;9.13;;
67965;SDS011;54749;47.850;9.002;2022-12-13T10:22:09;22.42;;;8.68;;
67965;SDS011;54749;47.850;9.002;2022-12-13T10:30:16;21.67;;;9.05;;
67965;SDS011;54749;47.850;9.002;2022-12-13T10:37:58;21.35;;;9.27;;
67965;SDS011;54749;47.850;9.002;2022-12-13T10:40:33;20.23;;;8.97;;
67965;SDS011;54749;47.850;9.002;2022-12-13T10:48:21;19.58;;;9.25;;
67965;SDS011;54749;47.850;9.002;2022-12-13T10:51:00;22.83;;;9.48;;
67965;SDS011;54749;47.850;9.002;2022-12-13T10:53:31;19.97;;;9.00;;
67965;SDS011;54749;47.850;9.002;2022-12-13T10:56:01;20.00;;;9.00;;
67965;SDS011;54749;47.850;9.002;2022-12-13T10:58:34;22.92;;;9.80;;
67965;SDS011;54749;47.850;9.002;2022-12-13T11:01:07;19.85;;;8.55;;
67965;SDS011;54749;47.850;9.002;2022-12-13T11:03:37;21.08;;;9.52;;
67965;SDS011;54749;47.850;9.002;2022-12-13T11:06:14;21.73;;;9.32;;
67965;SDS011;54749;47.850;9.002;2022-12-13T11:08:45;21.10;;;8.60;;
67965;SDS011;54749;47.850;9.002;2022-12-13T11:11:13;20.08;;;9.07;;
67965;SDS011;54749;47.850;9.002;2022-12-13T11:13:44;21.45;;;9.18;;
67965;SDS011;54749;47.850;9.002;2022-12-13T11:18:53;19.80;;;9.27;;
67965;SDS011;54749;47.850;9.002;2022-12-13T11:21:23;20.53;;;8.83;;
67965;SDS011;54749;47.850;9.002;2022-12-13T11:23:53;22.25;;;8.55;;
67965;SDS011;54749;47.850;9.002;2022-12-13T11:26:27;19.10;;;8.73;;
67965;SDS011;54749;47.850;9.002;2022-12-13T11:31:38;22.25;;;7.55;;
67965;SDS011;54749;47.850;9.002;2022-12-13T11:34:51;20.43;;;8.30;;
67965;SDS011;54749;47.850;9.002;2022-12-13T11:40:00;19.55;;;8.63;;
67965;SDS011;54749;47.850;9.002;2022-12-13T11:45:26;19.35;;;7.85;;
67965;SDS011;54749;47.850;9.002;2022-12-13T11:48:20;19.43;;;7.93;;
67965;SDS011;54749;47.850;9.002;2022-12-13T11:50:54;22.90;;;8.38;;
67965;SDS011;54749;47.850;9.002;2022-12-13T11:53:27;23.33;;;8.93;;
67965;SDS011;54749;47.850;9.002;2022-12-13T12:02:01;21.67;;;8.00;;
67965;SDS011;54749;47.850;9.002;2022-12-13T12:07:28;20.75;;;8.70;;
67965;SDS011;54749;47.850;9.002;2022-12-13T12:12:57;21.15;;;8.20;;
67965;SDS011;54749;47.850;9.002;2022-12-13T12:15:33;24.17;;;9.00;;
67965;SDS011;54749;47.850;9.002;2022-12-13T12:18:21;20.95;;;7.95;;
67965;SDS011;54749;47.850;9.002;2022-12-13T12:20:52;20.00;;;7.90;;
67965;SDS011;54749;47.850;9.002;2022-12-13T12:25:54;20.52;;;7.75;;
67965;SDS011;54749;47.850;9.002;2022-12-13T12:28:37;20.15;;;8.63;;
67965;SDS011;54749;47.850;9.002;2022-12-13T12:31:23;21.03;;;7.83;;
67965;SDS011;54749;47.850;9.002;2022-12-13T12:34:15;19.48;;;7.47;;
67965;SDS011;54749;47.850;9.002;2022-12-13T12:39:32;18.90;;;7.15;;
67965;SDS011;54749;47.850;9.002;2022-12-13T12:44:56;26.67;;;8.50;;
67965;SDS011;54749;47.850;9.002;2022-12-13T13:04:10;22.33;;;7.75;;
67965;SDS011;54749;47.850;9.002;2022-12-13T13:06:53;20.83;;;7.18;;
67965;SDS011;54749;47.850;9.002;2022-12-13T13:09:27;19.73;;;8.02;;
67965;SDS011;54749;47.850;9.002;2022-12-13T13:11:56;21.33;;;7.57;;
67965;SDS011;54749;47.850;9.002;2022-12-13T13:14:48;17.87;;;6.80;;
67965;SDS011;54749;47.850;9.002;2022-12-13T13:19:44;23.33;;;8.27;;
67965;SDS011;54749;47.850;9.002;2022-12-13T13:22:26;20.50;;;7.32;;
67965;SDS011;54749;47.850;9.002;2022-12-13T13:27:30;22.00;;;8.80;;
67965;SDS011;54749;47.850;9.002;2022-12-13T13:30:20;25.00;;;8.38;;
67965;SDS011;54749;47.850;9.002;2022-12-13T13:32:50;22.45;;;9.35;;
67965;SDS011;54749;47.850;9.002;2022-12-13T13:38:00;23.20;;;8.02;;
67965;SDS011;54749;47.850;9.002;2022-12-13T13:40:33;23.10;;;8.13;;
67965;SDS011;54749;47.850;9.002;2022-12-13T13:43:47;25.83;;;9.18;;
67965;SDS011;54749;47.850;9.002;2022-12-13T14:02:57;25.00;;;9.23;;
67965;SDS011;54749;47.850;9.002;2022-12-13T14:14:26;17.88;;;7.40;;
67965;SDS011;54749;47.850;9.002;2022-12-13T14:20:41;33.63;;;7.45;;
67965;SDS011;54749;47.850;9.002;2022-12-13T14:23:37;20.30;;;8.03;;
67965;SDS011;54749;47.850;9.002;2022-12-13T14:28:55;25.55;;;9.77;;
67965;SDS011;54749;47.850;9.002;2022-12-13T14:31:25;20.25;;;8.00;;
67965;SDS011;54749;47.850;9.002;2022-12-13T14:34:15;24.98;;;8.32;;
67965;SDS011;54749;47.850;9.002;2022-12-13T14:37:19;20.37;;;7.60;;
67965;SDS011;54749;47.850;9.002;2022-12-13T14:39:47;20.50;;;7.25;;
67965;SDS011;54749;47.850;9.002;2022-12-13T14:42:49;22.15;;;8.30;;
67965;SDS011;54749;47.850;9.002;2022-12-13T14:47:43;22.77;;;8.50;;
67965;SDS011;54749;47.850;9.002;2022-12-13T14:50:10;21.90;;;7.53;;
67965;SDS011;54749;47.850;9.002;2022-12-13T14:52:41;22.02;;;8.10;;
67965;SDS011;54749;47.850;9.002;2022-12-13T14:55:20;18.02;;;7.35;;
67965;SDS011;54749;47.850;9.002;2022-12-13T14:57:55;18.52;;;7.68;;
67965;SDS011;54749;47.850;9.002;2022-12-13T15:00:28;21.08;;;7.75;;
67965;SDS011;54749;47.850;9.002;2022-12-13T15:02:58;17.27;;;7.23;;
67965;SDS011;54749;47.850;9.002;2022-12-13T15:05:29;22.35;;;7.72;;
67965;SDS011;54749;47.850;9.002;2022-12-13T15:07:59;21.50;;;7.40;;
67965;SDS011;54749;47.850;9.002;2022-12-13T15:10:37;20.00;;;6.88;;
67965;SDS011;54749;47.850;9.002;2022-12-13T15:13:21;23.58;;;8.20;;
67965;SDS011;54749;47.850;9.002;2022-12-13T15:15:57;24.73;;;7.40;;
67965;SDS011;54749;47.850;9.002;2022-12-13T15:18:34;17.00;;;6.50;;
67965;SDS011;54749;47.850;9.002;2022-12-13T15:21:19;20.58;;;7.88;;
67965;SDS011;54749;47.850;9.002;2022-12-13T15:23:56;26.63;;;8.60;;
67965;SDS011;54749;47.850;9.002;2022-12-13T15:26:28;21.73;;;7.75;;
67965;SDS011;54749;47.850;9.002;2022-12-13T15:28:59;20.50;;;8.07;;
67965;SDS011;54749;47.850;9.002;2022-12-13T15:31:37;23.40;;;8.10;;
67965;SDS011;54749;47.850;9.002;2022-12-13T15:36:57;23.35;;;8.30;;
67965;SDS011;54749;47.850;9.002;2022-12-13T15:39:27;23.13;;;8.05;;
67965;SDS011;54749;47.850;9.002;2022-12-13T15:41:57;22.30;;;8.30;;
67965;SDS011;54749;47.850;9.002;2022-12-13T15:44:25;26.40;;;8.05;;
67965;SDS011;54749;47.850;9.002;2022-12-13T15:47:05;17.75;;;7.63;;
67965;SDS011;54749;47.850;9.002;2022-12-13T15:50:04;26.15;;;9.18;;
67965;SDS011;54749;47.850;9.002;2022-12-13T15:57:51;24.25;;;8.25;;
67965;SDS011;54749;47.850;9.002;2022-12-13T16:00:23;25.15;;;8.60;;
67965;SDS011;54749;47.850;9.002;2022-12-13T16:05:40;22.25;;;9.00;;
67965;SDS011;54749;47.850;9.002;2022-12-13T16:10:51;27.77;;;10.68;;
67965;SDS011;54749;47.850;9.002;2022-12-13T16:13:24;25.52;;;9.38;;
67965;SDS011;54749;47.850;9.002;2022-12-13T16:18:45;27.08;;;10.02;;
67965;SDS011;54749;47.850;9.002;2022-12-13T16:21:18;22.13;;;8.73;;
67965;SDS011;54749;47.850;9.002;2022-12-13T16:23:45;27.95;;;8.80;;
67965;SDS011;54749;47.850;9.002;2022-12-13T16:26:19;29.10;;;8.67;;
67965;SDS011;54749;47.850;9.002;2022-12-13T16:28:48;24.73;;;9.15;;
67965;SDS011;54749;47.850;9.002;2022-12-13T16:31:16;28.75;;;10.10;;
67965;SDS011;54749;47.850;9.002;2022-12-13T16:33:48;26.63;;;9.13;;
67965;SDS011;54749;47.850;9.002;2022-12-13T16:36:15;26.90;;;10.25;;
67965;SDS011;54749;47.850;9.002;2022-12-13T16:38:43;25.63;;;9.70;;
67965;SDS011;54749;47.850;9.002;2022-12-13T16:41:10;28.92;;;9.57;;
67965;SDS011;54749;47.850;9.002;2022-12-13T16:43:39;33.22;;;11.00;;
67965;SDS011;54749;47.850;9.002;2022-12-13T16:46:15;28.60;;;9.80;;
67965;SDS011;54749;47.850;9.002;2022-12-13T16:49:04;30.27;;;9.65;;
67965;SDS011;54749;47.850;9.002;2022-12-13T16:51:41;26.77;;;9.80;;
67965;SDS011;54749;47.850;9.002;2022-12-13T16:54:14;22.20;;;8.23;;
67965;SDS011;54749;47.850;9.002;2022-12-13T16:56:41;27.13;;;9.32;;
67965;SDS011;54749;47.850;9.002;2022-12-13T16:59:12;23.52;;;9.00;;
67965;SDS011;54749;47.850;9.002;2022-12-13T17:01:44;22.50;;;8.73;;
67965;SDS011;54749;47.850;9.002;2022-12-13T17:04:12;34.43;;;11.87;;
67965;SDS011;54749;47.850;9.002;2022-12-13T17:06:47;26.77;;;9.38;;
67965;SDS011;54749;47.850;9.002;2022-12-13T17:09:16;36.50;;;12.05;;
67965;SDS011;54749;47.850;9.002;2022-12-13T17:11:43;34.55;;;11.63;;
67965;SDS011;54749;47.850;9.002;2022-12-13T17:14:10;30.75;;;10.63;;
67965;SDS011;54749;47.850;9.002;2022-12-13T17:16:38;23.33;;;8.87;;
67965;SDS011;54749;47.850;9.002;2022-12-13T17:19:05;29.02;;;10.27;;
67965;SDS011;54749;47.850;9.002;2022-12-13T17:21:32;30.27;;;11.38;;
67965;SDS011;54749;47.850;9.002;2022-12-13T17:24:00;32.72;;;12.07;;
67965;SDS011;54749;47.850;9.002;2022-12-13T17:26:27;31.48;;;11.32;;
67965;SDS011;54749;47.850;9.002;2022-12-13T17:28:55;22.73;;;8.65;;
67965;SDS011;54749;47.850;9.002;2022-12-13T17:31:22;35.73;;;12.80;;
67965;SDS011;54749;47.850;9.002;2022-12-13T17:33:49;29.40;;;10.75;;
67965;SDS011;54749;47.850;9.002;2022-12-13T17:36:17;33.38;;;10.82;;
67965;SDS011;54749;47.850;9.002;2022-12-13T17:38:46;32.75;;;11.68;;